SAVT/REL METAR and TAF weather

Enter ICAO airport designator
Station Type Date Time Source
SAVT METAR 2019/08/23 18:18 UTC NOAA

SAVT 231818Z VRB15G25KT CAVOK 18/05 Q1013


Station Type Date Time Source
SAVT Decoded METAR 2019/08/23 18:18 UTC NOAA

Station name not available
Aug 23, 2019 - 02:18 PM EDT / 2019.08.23 1818 UTC
Wind: Variable at 17 MPH (15 KT) gusting to 29 MPH (25 KT):0
Visibility: greater than 7 mile(s):0
Temperature: 64 F (18 C)
Dew Point: 41 F (5 C)
Relative Humidity: 42%
Pressure (altimeter): 29.91 in. Hg (1013 hPa)
ob: SAVT 231818Z VRB15G25KT CAVOK 18/05 Q1013
cycle: 18

Station Type Date Time Source
SAVT TAF 2019/04/29 08:53 UTC NOAA

TAF
AMD SAVT 290800Z 2908/3006 27025G40KT 9999 SCT020 BKN035 TX16/2919Z TN07/3006Z
TEMPO 2911/2914 7000 -SHRA OVC020 SCT030
BECMG 3002/3004 25015KT

Example: see airport list